Time;durP1;ratioP1;P1;durP2;ratioP2;P2;SDS_P1;SDS_P2;PMS_P1;PMS_P2;Temp;Humidity;BMP_temperature;BMP_pressure;BME280_temperature;BME280_humidity;BME280_pressure;Samples;Min_cycle;Max_cycle;Signal;HPM_P1;HPM_P2
2022/09/22 03:01:26;;;;;;;;;;;19.90;46.00;;;;;;5474783;23;45731;-60
2022/09/22 03:03:51;;;;;;;;;;;19.80;46.00;;;;;;4906875;28;45417;-60
2022/09/22 03:06:17;;;;;;;;;;;19.80;46.00;;;;;;4891636;28;45432;-59
2022/09/22 03:08:42;;;;;;;;;;;19.80;45.90;;;;;;4912170;28;45235;-61
2022/09/22 03:11:08;;;;;;;;;;;19.80;46.00;;;;;;4899110;28;44703;-60
2022/09/22 03:13:33;;;;;;;;;;;19.80;46.00;;;;;;4910794;28;45241;-61
2022/09/22 03:15:59;;;;;;;;;;;19.80;46.00;;;;;;4911090;28;45688;-59
2022/09/22 03:18:24;;;;;;;;;;;19.80;45.90;;;;;;4896384;28;45142;-60
2022/09/22 03:20:49;;;;;;;;;;;19.80;46.00;;;;;;4914919;28;45282;-61
2022/09/22 03:23:15;;;;;;;;;;;19.80;46.00;;;;;;4892304;28;45437;-61
2022/09/22 03:25:40;;;;;;;;;;;19.80;46.00;;;;;;4912040;28;45494;-60
2022/09/22 03:28:06;;;;;;;;;;;19.80;46.00;;;;;;4894436;28;45198;-60
2022/09/22 03:30:31;;;;;;;;;;;19.80;46.00;;;;;;4908749;28;45479;-61
2022/09/22 03:32:57;;;;;;;;;;;19.80;46.00;;;;;;4909595;28;45640;-61
2022/09/22 03:35:22;;;;;;;;;;;19.70;45.90;;;;;;4909826;28;46207;-62
2022/09/22 03:37:48;;;;;;;;;;;19.70;45.90;;;;;;4895029;28;45320;-60
2022/09/22 03:40:13;;;;;;;;;;;19.70;46.00;;;;;;4914130;28;45375;-61
2022/09/22 03:42:39;;;;;;;;;;;19.70;46.00;;;;;;4910932;28;45459;-61
2022/09/22 03:45:04;;;;;;;;;;;19.70;46.00;;;;;;4913150;28;47018;-61
2022/09/22 03:47:30;;;;;;;;;;;19.70;46.00;;;;;;4910006;28;45240;-61
2022/09/22 03:49:56;;;;;;;;;;;19.70;46.00;;;;;;4911873;28;45533;-60
2022/09/22 03:52:21;;;;;;;;;;;19.70;46.00;;;;;;4905386;28;45217;-60
2022/09/22 03:54:47;;;;;;;;;;;19.70;46.00;;;;;;4901596;28;46917;-60
2022/09/22 03:57:12;;;;;;;;;;;19.70;45.90;;;;;;4901704;28;45411;-60
2022/09/22 03:59:38;;;;;;;;;;;19.70;45.90;;;;;;4911298;28;45053;-61
2022/09/22 04:02:04;;;;;;;;;;;19.70;45.90;;;;;;4908237;28;45688;-61
2022/09/22 04:04:29;;;;;;;;;;;19.70;46.00;;;;;;4907741;28;46253;-61
2022/09/22 04:06:55;;;;;;;;;;;19.70;46.00;;;;;;4907422;28;45054;-60
2022/09/22 04:09:20;;;;;;;;;;;19.70;46.00;;;;;;4910154;28;45596;-62
2022/09/22 04:11:46;;;;;;;;;;;19.70;46.00;;;;;;4911802;28;45454;-62
2022/09/22 04:14:11;;;;;;;;;;;19.60;46.00;;;;;;4906990;28;45977;-61
2022/09/22 04:16:37;;;;;;;;;;;19.60;46.10;;;;;;4909002;28;45334;-62
2022/09/22 04:19:03;;;;;;;;;;;19.70;46.20;;;;;;4917328;28;45213;-60
2022/09/22 04:21:29;;;;;;;;;;;19.70;46.10;;;;;;4894912;28;45341;-61
2022/09/22 04:23:55;;;;;;;;;;;19.70;46.10;;;;;;4904897;28;46057;-62
2022/09/22 04:26:21;;;;;;;;;;;19.70;46.10;;;;;;4911662;28;45391;-61
2022/09/22 04:28:46;;;;;;;;;;;19.70;46.10;;;;;;4911130;28;44744;-61
2022/09/22 04:31:12;;;;;;;;;;;19.70;46.10;;;;;;4908718;28;45740;-62
2022/09/22 04:33:37;;;;;;;;;;;19.70;46.10;;;;;;4908407;28;45538;-61
2022/09/22 04:36:03;;;;;;;;;;;19.70;46.10;;;;;;4910985;28;45408;-61
2022/09/22 04:38:28;;;;;;;;;;;19.70;46.00;;;;;;4913337;28;45427;-62
2022/09/22 04:40:54;;;;;;;;;;;19.80;46.00;;;;;;4889519;28;45588;-61
2022/09/22 04:43:19;;;;;;;;;;;19.80;46.00;;;;;;4911065;28;45175;-60
2022/09/22 04:45:45;;;;;;;;;;;19.80;46.00;;;;;;4894817;28;45308;-60
2022/09/22 04:48:11;;;;;;;;;;;19.80;46.00;;;;;;4888578;28;44709;-61
2022/09/22 04:50:36;;;;;;;;;;;19.80;46.10;;;;;;4911549;28;45363;-60
2022/09/22 04:53:02;;;;;;;;;;;19.80;46.00;;;;;;4893881;28;45624;-62
2022/09/22 04:55:27;;;;;;;;;;;19.80;46.10;;;;;;4916716;28;46319;-61
2022/09/22 04:57:54;;;;;;;;;;;19.80;46.00;;;;;;4910050;28;45267;-61
2022/09/22 05:00:20;;;;;;;;;;;19.80;46.00;;;;;;4914121;28;45201;-62
2022/09/22 05:02:45;;;;;;;;;;;19.80;46.10;;;;;;4897929;28;45496;-61
2022/09/22 05:05:11;;;;;;;;;;;19.80;46.10;;;;;;4909564;28;45481;-61
2022/09/22 05:07:45;;;;;;;;;;;19.80;46.10;;;;;;4912183;28;45219;-61
2022/09/22 05:10:10;;;;;;;;;;;19.80;46.00;;;;;;4914998;28;45351;-61
2022/09/22 05:12:42;;;;;;;;;;;19.80;46.00;;;;;;4907654;28;45213;-61
2022/09/22 05:15:08;;;;;;;;;;;19.80;46.00;;;;;;4906534;28;44775;-61
2022/09/22 05:17:35;;;;;;;;;;;19.80;46.00;;;;;;4910422;28;45608;-61
2022/09/22 05:20:03;;;;;;;;;;;19.80;46.00;;;;;;4913243;28;45460;-61
2022/09/22 05:22:29;;;;;;;;;;;19.80;45.90;;;;;;4892981;28;47583;-61
2022/09/22 05:24:54;;;;;;;;;;;19.80;45.90;;;;;;4914642;28;45452;-61
2022/09/22 05:27:20;;;;;;;;;;;19.80;45.90;;;;;;4916143;28;45496;-60
2022/09/22 05:29:46;;;;;;;;;;;19.80;45.90;;;;;;4908519;28;45407;-60
2022/09/22 05:32:11;;;;;;;;;;;19.80;45.90;;;;;;4891054;28;45510;-61
2022/09/22 05:34:36;;;;;;;;;;;19.80;46.00;;;;;;4913092;28;46034;-61
2022/09/22 05:37:02;;;;;;;;;;;19.80;46.00;;;;;;4912357;28;45701;-62
2022/09/22 05:39:27;;;;;;;;;;;19.80;46.00;;;;;;4912680;28;45201;-61
2022/09/22 05:41:53;;;;;;;;;;;19.80;45.90;;;;;;4891156;28;45309;-61
2022/09/22 05:44:20;;;;;;;;;;;19.80;46.00;;;;;;4888134;28;46160;-60
2022/09/22 05:46:46;;;;;;;;;;;19.80;45.90;;;;;;4903352;28;45465;-60
2022/09/22 05:49:12;;;;;;;;;;;19.80;45.90;;;;;;4905012;28;45538;-61
2022/09/22 05:51:38;;;;;;;;;;;19.80;45.90;;;;;;4914367;28;46462;-61
2022/09/22 05:54:03;;;;;;;;;;;19.80;45.90;;;;;;4913058;28;45343;-61
2022/09/22 05:56:31;;;;;;;;;;;19.80;45.90;;;;;;4910910;28;45543;-61
2022/09/22 05:58:57;;;;;;;;;;;19.80;45.90;;;;;;4900779;28;45572;-61
2022/09/22 06:01:22;;;;;;;;;;;19.80;45.90;;;;;;4911617;28;45558;-60
2022/09/22 06:03:48;;;;;;;;;;;19.80;45.90;;;;;;4903500;28;45799;-61
2022/09/22 06:06:13;;;;;;;;;;;19.80;45.80;;;;;;4890272;28;44963;-61
2022/09/22 06:08:39;;;;;;;;;;;19.70;45.80;;;;;;4907816;28;45362;-58
2022/09/22 06:11:05;;;;;;;;;;;19.70;45.80;;;;;;4907156;28;45379;-60
2022/09/22 06:13:30;;;;;;;;;;;19.80;46.40;;;;;;4907484;28;45183;-61
2022/09/22 06:15:56;;;;;;;;;;;19.80;45.80;;;;;;4910433;28;44974;-61
2022/09/22 06:18:24;;;;;;;;;;;19.80;45.70;;;;;;4916660;28;45635;-61
2022/09/22 06:20:50;;;;;;;;;;;19.80;45.70;;;;;;4896216;28;45455;-61
2022/09/22 06:23:15;;;;;;;;;;;19.80;45.80;;;;;;4917345;28;45476;-60
2022/09/22 06:25:42;;;;;;;;;;;19.80;45.80;;;;;;4910261;28;45242;-60
2022/09/22 06:28:09;;;;;;;;;;;19.90;45.60;;;;;;4911853;28;44991;-61
2022/09/22 06:30:35;;;;;;;;;;;20.10;45.40;;;;;;4914216;28;47391;-61
2022/09/22 06:33:01;;;;;;;;;;;20.30;45.10;;;;;;4893122;28;45359;-61
2022/09/22 06:35:36;;;;;;;;;;;20.40;44.90;;;;;;4914039;28;45430;-60
2022/09/22 06:38:02;;;;;;;;;;;20.60;44.60;;;;;;4909569;28;45205;-60
2022/09/22 06:40:28;;;;;;;;;;;20.80;44.90;;;;;;4912742;28;45417;-61
2022/09/22 06:42:57;;;;;;;;;;;21.00;44.10;;;;;;4915136;28;45165;-62
2022/09/22 06:45:24;;;;;;;;;;;21.20;44.00;;;;;;4898241;28;44735;-61
2022/09/22 06:47:50;;;;;;;;;;;21.30;43.90;;;;;;4916192;28;45440;-63
2022/09/22 06:50:16;;;;;;;;;;;21.40;43.70;;;;;;4901376;28;46772;-61
2022/09/22 06:52:42;;;;;;;;;;;21.50;43.60;;;;;;4912033;28;45306;-61
2022/09/22 06:55:09;;;;;;;;;;;21.60;43.40;;;;;;4921470;28;45039;-61
2022/09/22 06:57:35;;;;;;;;;;;21.80;43.30;;;;;;4917878;28;45463;-61
2022/09/22 07:00:01;;;;;;;;;;;21.90;43.20;;;;;;4917447;28;45596;-61
2022/09/22 07:02:28;;;;;;;;;;;22.00;43.10;;;;;;4916137;28;45529;-62
2022/09/22 07:04:57;;;;;;;;;;;22.10;42.90;;;;;;4914738;28;44969;-62
2022/09/22 07:07:26;;;;;;;;;;;22.30;42.80;;;;;;4916805;28;45502;-62
2022/09/22 07:09:51;;;;;;;;;;;22.40;42.80;;;;;;4915738;28;45531;-61
2022/09/22 07:12:18;;;;;;;;;;;22.50;42.70;;;;;;4915228;28;44983;-61
2022/09/22 07:14:47;;;;;;;;;;;22.60;42.60;;;;;;4915965;28;45261;-61
2022/09/22 07:17:13;;;;;;;;;;;22.60;42.40;;;;;;4918657;28;46033;-61
2022/09/22 07:19:38;;;;;;;;;;;22.70;42.40;;;;;;4918796;28;45364;-61
2022/09/22 07:22:04;;;;;;;;;;;22.80;42.20;;;;;;4913538;28;45385;-60
2022/09/22 07:24:29;;;;;;;;;;;22.90;42.10;;;;;;4915018;28;45409;-62
2022/09/22 07:26:55;;;;;;;;;;;23.00;42.10;;;;;;4896572;28;45026;-62
2022/09/22 07:29:20;;;;;;;;;;;23.10;41.90;;;;;;4915341;28;45483;-60
2022/09/22 07:31:46;;;;;;;;;;;23.10;41.80;;;;;;4918762;28;44765;-62
2022/09/22 07:34:11;;;;;;;;;;;23.20;41.80;;;;;;4913481;28;45396;-61
2022/09/22 07:36:38;;;;;;;;;;;23.20;41.70;;;;;;4923932;28;45544;-61
2022/09/22 07:39:05;;;;;;;;;;;23.30;41.70;;;;;;4901086;28;45242;-61
2022/09/22 07:41:31;;;;;;;;;;;23.30;41.50;;;;;;4899834;28;45461;-61
2022/09/22 07:45:11;;;;;;;;;;;23.40;41.50;;;;;;4896839;28;44927;-61
2022/09/22 07:46:42;;;;;;;;;;;23.50;41.40;;;;;;4897091;28;45131;-62
2022/09/22 07:49:08;;;;;;;;;;;23.50;41.30;;;;;;4915339;28;45394;-62
2022/09/22 07:51:34;;;;;;;;;;;23.60;41.30;;;;;;4914234;28;45544;-61
2022/09/22 07:54:09;;;;;;;;;;;23.60;41.20;;;;;;4914488;28;45493;-61
2022/09/22 07:56:41;;;;;;;;;;;23.70;41.20;;;;;;4896203;28;45283;-61
2022/09/22 07:59:09;;;;;;;;;;;23.80;41.10;;;;;;4915337;28;45433;-60
2022/09/22 08:01:35;;;;;;;;;;;23.80;41.10;;;;;;4916457;28;45213;-61
2022/09/22 08:04:01;;;;;;;;;;;23.90;41.00;;;;;;4913996;28;45527;-62
2022/09/22 08:06:27;;;;;;;;;;;23.90;40.90;;;;;;4919108;28;45175;-61
2022/09/22 08:08:55;;;;;;;;;;;24.00;40.80;;;;;;4902570;28;46361;-61
2022/09/22 08:11:24;;;;;;;;;;;24.10;40.70;;;;;;4919959;28;45413;-61
2022/09/22 08:13:53;;;;;;;;;;;24.10;40.70;;;;;;4915099;28;45567;-61
2022/09/22 08:16:21;;;;;;;;;;;24.20;40.60;;;;;;4917941;28;45076;-60
2022/09/22 08:18:55;;;;;;;;;;;24.20;40.60;;;;;;4917810;28;45925;-62
2022/09/22 08:21:25;;;;;;;;;;;24.30;40.40;;;;;;4910919;28;44980;-63
2022/09/22 08:23:51;;;;;;;;;;;24.40;40.40;;;;;;4880618;28;45312;-62
2022/09/22 08:26:17;;;;;;;;;;;24.40;40.40;;;;;;4912403;28;45252;-61
2022/09/22 08:28:43;;;;;;;;;;;24.40;40.30;;;;;;4915790;28;46151;-61
2022/09/22 08:31:10;;;;;;;;;;;24.50;40.30;;;;;;4917143;28;44734;-61
2022/09/22 08:33:36;;;;;;;;;;;24.60;40.20;;;;;;4917320;28;45502;-62
2022/09/22 08:36:02;;;;;;;;;;;24.60;40.30;;;;;;4912152;28;45382;-61
2022/09/22 08:38:28;;;;;;;;;;;24.70;40.10;;;;;;4914029;28;45336;-62
2022/09/22 08:40:58;;;;;;;;;;;24.70;40.00;;;;;;4914326;28;44656;-62
2022/09/22 08:43:24;;;;;;;;;;;24.80;40.00;;;;;;4915855;28;44794;-62
2022/09/22 08:45:49;;;;;;;;;;;24.80;40.00;;;;;;4914038;28;45182;-61
2022/09/22 08:53:47;;;;;;;;;;;24.90;39.80;;;;;;4915179;28;45211;-62
2022/09/22 08:56:22;;;;;;;;;;;25.00;39.80;;;;;;4895846;28;45522;-61
2022/09/22 08:58:49;;;;;;;;;;;25.10;39.70;;;;;;4911091;28;45839;-61
2022/09/22 09:01:24;;;;;;;;;;;25.10;39.60;;;;;;4892938;28;45519;-62
2022/09/22 09:03:54;;;;;;;;;;;25.20;39.70;;;;;;4917720;28;44960;-61
2022/09/22 09:06:20;;;;;;;;;;;25.20;39.50;;;;;;4887263;28;45725;-62
2022/09/22 09:08:49;;;;;;;;;;;25.30;39.60;;;;;;4912655;28;45474;-61
2022/09/22 09:11:25;;;;;;;;;;;25.30;39.50;;;;;;4882426;28;44991;-61
2022/09/22 09:14:08;;;;;;;;;;;25.40;39.50;;;;;;4918296;28;44827;-62
2022/09/22 09:16:34;;;;;;;;;;;25.40;39.30;;;;;;4912628;28;45746;-62
2022/09/22 09:19:02;;;;;;;;;;;25.50;39.30;;;;;;4910674;28;45484;-61
2022/09/22 09:21:27;;;;;;;;;;;25.50;39.30;;;;;;4894802;28;45563;-59
2022/09/22 09:23:53;;;;;;;;;;;25.50;39.30;;;;;;4892317;28;45213;-61
2022/09/22 09:26:19;;;;;;;;;;;25.50;39.30;;;;;;4897330;28;45245;-61
2022/09/22 09:28:49;;;;;;;;;;;25.60;39.30;;;;;;4911048;28;45155;-61
2022/09/22 09:31:20;;;;;;;;;;;25.60;39.30;;;;;;4894171;28;45013;-62
2022/09/22 09:33:45;;;;;;;;;;;25.60;39.30;;;;;;4891951;28;45299;-62
2022/09/22 09:36:12;;;;;;;;;;;25.60;39.30;;;;;;4916508;28;45756;-61
2022/09/22 09:38:42;;;;;;;;;;;25.60;39.30;;;;;;4896524;28;45469;-62
2022/09/22 09:41:27;;;;;;;;;;;25.60;39.20;;;;;;4913021;28;45184;-61
2022/09/22 09:43:55;;;;;;;;;;;25.70;39.30;;;;;;4912596;28;45488;-63
2022/09/22 09:46:26;;;;;;;;;;;25.70;39.20;;;;;;4898648;28;45101;-61
2022/09/22 09:48:57;;;;;;;;;;;25.70;39.20;;;;;;4917572;28;45728;-61
2022/09/22 09:51:22;;;;;;;;;;;25.80;39.30;;;;;;4914414;28;45231;-61
2022/09/22 09:53:48;;;;;;;;;;;25.80;39.20;;;;;;4912097;28;45151;-60
2022/09/22 09:56:16;;;;;;;;;;;25.80;39.20;;;;;;4900840;28;45009;-61
2022/09/22 10:01:40;;;;;;;;;;;25.80;39.20;;;;;;4917003;28;45218;-62
2022/09/22 10:04:16;;;;;;;;;;;25.90;39.30;;;;;;4894564;28;45411;-61
2022/09/22 10:06:41;;;;;;;;;;;25.90;39.20;;;;;;4899564;28;45374;-60
2022/09/22 10:09:07;;;;;;;;;;;25.90;39.20;;;;;;4912221;28;45792;-60
2022/09/22 10:11:33;;;;;;;;;;;26.00;39.20;;;;;;4913922;28;45449;-61
2022/09/22 10:13:59;;;;;;;;;;;26.00;39.20;;;;;;4912964;28;45368;-62
2022/09/22 10:16:29;;;;;;;;;;;26.00;39.10;;;;;;4900526;28;45488;-62
2022/09/22 10:19:01;;;;;;;;;;;26.00;39.00;;;;;;4887872;28;45243;-61
2022/09/22 10:21:27;;;;;;;;;;;25.90;39.10;;;;;;4914921;28;45466;-62
2022/09/22 10:23:56;;;;;;;;;;;25.90;39.20;;;;;;4922606;28;45149;-62
2022/09/22 10:26:25;;;;;;;;;;;25.80;39.40;;;;;;4901887;28;45250;-62
2022/09/22 10:29:05;;;;;;;;;;;25.70;39.40;;;;;;4918608;28;45410;-62
2022/09/22 10:31:31;;;;;;;;;;;25.60;39.50;;;;;;4912488;28;45305;-61
2022/09/22 10:33:58;;;;;;;;;;;25.60;39.60;;;;;;4922307;28;45729;-61
2022/09/22 10:36:25;;;;;;;;;;;25.50;39.70;;;;;;4918223;28;45362;-62
2022/09/22 10:38:50;;;;;;;;;;;25.40;39.80;;;;;;4903218;28;45166;-62
2022/09/22 10:41:26;;;;;;;;;;;25.50;39.90;;;;;;4922415;28;45538;-62
2022/09/22 10:43:54;;;;;;;;;;;25.40;39.90;;;;;;4917568;28;45268;-62
2022/09/22 10:46:38;;;;;;;;;;;25.40;40.00;;;;;;4919544;28;44870;-62
2022/09/22 10:49:12;;;;;;;;;;;25.30;40.00;;;;;;4923673;28;47297;-61
2022/09/22 10:51:56;;;;;;;;;;;25.30;40.10;;;;;;4916896;28;45285;-62
2022/09/22 10:54:40;;;;;;;;;;;25.20;40.10;;;;;;4916237;28;45290;-61
2022/09/22 10:57:10;;;;;;;;;;;25.10;40.20;;;;;;4905786;28;45480;-62
2022/09/22 10:59:39;;;;;;;;;;;25.10;40.20;;;;;;4920805;28;47190;-62
2022/09/22 11:02:17;;;;;;;;;;;25.00;40.10;;;;;;4914722;28;45357;-62
2022/09/22 11:04:45;;;;;;;;;;;25.00;40.30;;;;;;4921801;28;45103;-62
2022/09/22 11:12:54;;;;;;;;;;;24.90;40.40;;;;;;4897693;28;45327;-62
2022/09/22 11:15:23;;;;;;;;;;;24.90;40.50;;;;;;4899369;28;45342;-62
2022/09/22 11:18:01;;;;;;;;;;;24.90;40.60;;;;;;4901380;28;45253;-62
2022/09/22 11:20:36;;;;;;;;;;;24.80;40.60;;;;;;4924851;28;46389;-62
2022/09/22 11:23:16;;;;;;;;;;;24.80;40.60;;;;;;4897445;28;45162;-61
2022/09/22 11:26:00;;;;;;;;;;;24.80;40.60;;;;;;4917131;28;45292;-61
2022/09/22 11:28:35;;;;;;;;;;;24.80;40.60;;;;;;4912422;28;45748;-62
2022/09/22 11:31:01;;;;;;;;;;;24.80;40.80;;;;;;4893643;28;47349;-62
2022/09/22 11:33:30;;;;;;;;;;;24.70;40.80;;;;;;4914417;28;45176;-63
2022/09/22 11:36:01;;;;;;;;;;;24.70;41.50;;;;;;4919025;28;45312;-62
2022/09/22 11:38:45;;;;;;;;;;;24.70;40.90;;;;;;4910971;28;45455;-63
2022/09/22 11:41:14;;;;;;;;;;;24.60;40.90;;;;;;4917777;28;46393;-62
2022/09/22 11:43:40;;;;;;;;;;;24.60;41.00;;;;;;4919768;28;45110;-61
2022/09/22 11:46:05;;;;;;;;;;;24.60;41.10;;;;;;4917939;28;44635;-58
2022/09/22 11:48:33;;;;;;;;;;;24.50;41.00;;;;;;4912831;28;45472;-59
2022/09/22 11:51:19;;;;;;;;;;;24.50;41.10;;;;;;4899820;28;47439;-57
2022/09/22 11:53:56;;;;;;;;;;;24.50;41.10;;;;;;4913067;28;45316;-58
2022/09/22 11:56:24;;;;;;;;;;;24.40;41.30;;;;;;4909201;28;45037;-58
2022/09/22 11:58:50;;;;;;;;;;;24.40;41.40;;;;;;4916571;28;44786;-57
2022/09/22 12:01:20;;;;;;;;;;;24.30;41.40;;;;;;4914198;28;45394;-56
2022/09/22 12:03:46;;;;;;;;;;;24.30;41.40;;;;;;4911458;28;45590;-58
2022/09/22 12:06:13;;;;;;;;;;;24.30;41.40;;;;;;4899810;28;45305;-56
2022/09/22 12:08:44;;;;;;;;;;;24.30;41.40;;;;;;4906369;28;45513;-56
2022/09/22 12:11:09;;;;;;;;;;;24.20;41.50;;;;;;4898586;28;46102;-54
2022/09/22 12:13:35;;;;;;;;;;;24.20;41.50;;;;;;4918395;28;45480;-54
2022/09/22 12:16:00;;;;;;;;;;;24.20;41.60;;;;;;4898221;28;45105;-56
2022/09/22 12:18:35;;;;;;;;;;;24.20;41.60;;;;;;4917404;28;45208;-57
2022/09/22 12:21:15;;;;;;;;;;;24.20;41.60;;;;;;4918273;28;45604;-60
2022/09/22 12:23:41;;;;;;;;;;;24.20;41.60;;;;;;4915820;28;44702;-59
2022/09/22 12:26:11;;;;;;;;;;;24.20;41.70;;;;;;4899932;28;45227;-58
2022/09/22 12:28:37;;;;;;;;;;;24.10;41.60;;;;;;4916685;28;45717;-57
2022/09/22 12:31:11;;;;;;;;;;;24.10;41.80;;;;;;4905963;28;45577;-57
2022/09/22 12:33:37;;;;;;;;;;;24.10;41.80;;;;;;4916478;28;45307;-59
2022/09/22 12:36:03;;;;;;;;;;;24.10;41.80;;;;;;4899628;28;45029;-57
2022/09/22 12:38:30;;;;;;;;;;;24.10;41.80;;;;;;4916223;28;46275;-59
2022/09/22 12:41:01;;;;;;;;;;;24.00;41.90;;;;;;4905346;28;45308;-58
2022/09/22 12:43:26;;;;;;;;;;;24.00;42.00;;;;;;4918535;28;44707;-58
2022/09/22 12:45:52;;;;;;;;;;;24.00;42.00;;;;;;4900462;28;45326;-59
2022/09/22 12:48:21;;;;;;;;;;;24.00;42.00;;;;;;4902425;28;45462;-59
2022/09/22 12:50:47;;;;;;;;;;;24.00;42.00;;;;;;4922943;28;46107;-58
2022/09/22 12:53:22;;;;;;;;;;;24.00;42.00;;;;;;4916566;28;45385;-58
2022/09/22 12:55:48;;;;;;;;;;;24.00;42.10;;;;;;4914705;28;44750;-58
2022/09/22 12:58:19;;;;;;;;;;;23.90;42.00;;;;;;4918295;28;45232;-59
2022/09/22 13:00:44;;;;;;;;;;;23.90;42.10;;;;;;4920814;28;45351;-59
2022/09/22 13:03:29;;;;;;;;;;;23.90;42.20;;;;;;4901735;28;45208;-57
2022/09/22 13:05:57;;;;;;;;;;;23.90;42.30;;;;;;4921138;28;45412;-58
2022/09/22 13:08:24;;;;;;;;;;;23.80;42.30;;;;;;4915627;28;46269;-58
2022/09/22 13:10:50;;;;;;;;;;;23.80;42.30;;;;;;4917508;28;47185;-56
2022/09/22 13:13:28;;;;;;;;;;;23.80;42.40;;;;;;4922189;28;45484;-57
2022/09/22 13:15:55;;;;;;;;;;;23.80;42.50;;;;;;4922391;28;45408;-57
2022/09/22 13:18:27;;;;;;;;;;;23.80;42.50;;;;;;4913622;28;45379;-59
2022/09/22 13:20:53;;;;;;;;;;;23.80;42.60;;;;;;4917752;28;45420;-58
2022/09/22 13:23:18;;;;;;;;;;;23.80;42.60;;;;;;4900395;28;45199;-60
2022/09/22 13:25:44;;;;;;;;;;;23.80;42.60;;;;;;4916515;28;45265;-60
2022/09/22 13:28:11;;;;;;;;;;;23.80;42.60;;;;;;4897817;28;45640;-59
2022/09/22 13:30:37;;;;;;;;;;;23.70;42.70;;;;;;4916372;28;45383;-59
2022/09/22 13:33:03;;;;;;;;;;;23.70;42.70;;;;;;4917611;28;45082;-58
2022/09/22 13:35:37;;;;;;;;;;;23.70;42.70;;;;;;4917929;28;45209;-59
2022/09/22 13:38:03;;;;;;;;;;;23.70;42.70;;;;;;4892648;28;45386;-59
2022/09/22 13:40:30;;;;;;;;;;;23.70;42.70;;;;;;4911724;28;45259;-59
2022/09/22 13:43:00;;;;;;;;;;;23.70;42.80;;;;;;4905013;28;44840;-58
2022/09/22 13:45:26;;;;;;;;;;;23.70;42.80;;;;;;4910262;28;45656;-58
2022/09/22 13:47:53;;;;;;;;;;;23.70;42.90;;;;;;4889152;28;47505;-57
2022/09/22 13:50:19;;;;;;;;;;;23.60;42.80;;;;;;4893474;28;46590;-57
2022/09/22 13:52:44;;;;;;;;;;;23.60;42.90;;;;;;4909436;28;45508;-59
2022/09/22 13:55:15;;;;;;;;;;;23.60;43.00;;;;;;4917320;28;45583;-57
2022/09/22 13:57:40;;;;;;;;;;;23.60;43.60;;;;;;4890528;28;44960;-58
2022/09/22 14:00:08;;;;;;;;;;;23.60;43.00;;;;;;4910606;28;46375;-58
2022/09/22 14:02:33;;;;;;;;;;;23.60;43.00;;;;;;4907851;28;45073;-59
2022/09/22 14:05:03;;;;;;;;;;;23.60;43.10;;;;;;4912335;28;45199;-57
2022/09/22 14:07:29;;;;;;;;;;;23.60;43.10;;;;;;4902136;28;45272;-57
2022/09/22 14:09:58;;;;;;;;;;;23.60;43.20;;;;;;4877439;28;46451;-57
2022/09/22 14:12:26;;;;;;;;;;;23.60;43.20;;;;;;4897336;28;45646;-57
2022/09/22 14:14:51;;;;;;;;;;;23.60;43.30;;;;;;4895427;28;45649;-60
2022/09/22 14:17:20;;;;;;;;;;;23.50;43.30;;;;;;4908784;28;44858;-58
2022/09/22 14:19:50;;;;;;;;;;;23.50;43.40;;;;;;4894896;28;46005;-59
2022/09/22 14:22:22;;;;;;;;;;;23.50;43.30;;;;;;4892143;28;45220;-59
2022/09/22 14:24:53;;;;;;;;;;;23.50;43.40;;;;;;4917899;28;45291;-58
2022/09/22 14:27:20;;;;;;;;;;;23.50;44.00;;;;;;4917912;28;45552;-60
2022/09/22 14:29:47;;;;;;;;;;;23.50;44.00;;;;;;4891364;28;45451;-58
2022/09/22 14:32:25;;;;;;;;;;;23.50;43.40;;;;;;4893778;28;45226;-56
2022/09/22 14:34:51;;;;;;;;;;;23.50;43.40;;;;;;4911649;28;45206;-58
2022/09/22 14:37:22;;;;;;;;;;;23.50;43.40;;;;;;4895944;28;45326;-57
2022/09/22 14:39:49;;;;;;;;;;;23.50;43.40;;;;;;4892144;28;45905;-56
2022/09/22 14:42:16;;;;;;;;;;;23.50;43.40;;;;;;4899536;28;45374;-57
2022/09/22 14:44:48;;;;;;;;;;;23.50;43.50;;;;;;4887696;28;46581;-58
2022/09/22 14:47:23;;;;;;;;;;;23.50;43.50;;;;;;4909195;28;44796;-57
2022/09/22 14:49:48;;;;;;;;;;;23.50;43.50;;;;;;4910925;28;45586;-58
2022/09/22 14:52:22;;;;;;;;;;;23.50;43.60;;;;;;4892076;28;45345;-58
2022/09/22 14:54:48;;;;;;;;;;;23.50;43.60;;;;;;4911766;28;45149;-58
2022/09/22 14:57:14;;;;;;;;;;;23.50;43.60;;;;;;4908451;28;45637;-57
2022/09/22 15:02:34;;;;;;;;;;;23.50;43.70;;;;;;4893114;28;45238;-58
2022/09/22 15:05:02;;;;;;;;;;;23.40;43.60;;;;;;4916072;28;45479;-58
2022/09/22 15:07:30;;;;;;;;;;;23.40;43.60;;;;;;4896001;28;45639;-59
2022/09/22 15:10:01;;;;;;;;;;;23.40;43.60;;;;;;4911090;28;45259;-56
2022/09/22 15:12:36;;;;;;;;;;;23.40;43.60;;;;;;4881507;28;45108;-57
2022/09/22 15:15:14;;;;;;;;;;;23.40;43.60;;;;;;4900267;28;44722;-57
2022/09/22 15:20:33;;;;;;;;;;;23.40;43.60;;;;;;4904514;28;46327;-56
2022/09/22 15:22:59;;;;;;;;;;;23.40;43.60;;;;;;4911620;28;44783;-56
2022/09/22 15:25:25;;;;;;;;;;;23.40;43.70;;;;;;4893576;28;45113;-58
2022/09/22 15:27:52;;;;;;;;;;;23.40;43.70;;;;;;4910747;28;45520;-56
2022/09/22 15:30:18;;;;;;;;;;;23.40;43.70;;;;;;4906347;28;46264;-56
2022/09/22 15:32:45;;;;;;;;;;;23.40;43.70;;;;;;4896226;28;45924;-55
2022/09/22 15:35:11;;;;;;;;;;;23.40;43.70;;;;;;4909246;28;45294;-57
2022/09/22 15:37:38;;;;;;;;;;;23.40;43.80;;;;;;4894210;28;45173;-57
2022/09/22 15:40:17;;;;;;;;;;;23.40;43.80;;;;;;4894612;28;45639;-56
2022/09/22 15:42:43;;;;;;;;;;;23.40;43.80;;;;;;4890177;28;46022;-56
2022/09/22 15:45:12;;;;;;;;;;;23.30;43.90;;;;;;4894923;28;45473;-58
2022/09/22 15:47:38;;;;;;;;;;;23.30;43.90;;;;;;4906063;28;45162;-60
2022/09/22 15:50:04;;;;;;;;;;;23.30;43.90;;;;;;4909842;28;45257;-58
2022/09/22 15:52:29;;;;;;;;;;;23.30;44.00;;;;;;4908724;28;45790;-58
2022/09/22 15:54:55;;;;;;;;;;;23.30;44.00;;;;;;4913627;28;45475;-56
2022/09/22 15:57:20;;;;;;;;;;;23.30;44.00;;;;;;4910566;28;45031;-56
2022/09/22 15:59:46;;;;;;;;;;;23.20;44.00;;;;;;4914505;28;45071;-58
2022/09/22 16:02:11;;;;;;;;;;;23.20;44.10;;;;;;4891898;28;45631;-55
2022/09/22 16:04:38;;;;;;;;;;;23.20;44.10;;;;;;4895473;28;45868;-58
2022/09/22 16:07:04;;;;;;;;;;;23.20;44.20;;;;;;4914418;28;45129;-57
2022/09/22 16:09:30;;;;;;;;;;;23.10;44.20;;;;;;4912297;28;45507;-57
2022/09/22 16:11:55;;;;;;;;;;;23.10;44.20;;;;;;4912528;28;45566;-56
2022/09/22 16:14:24;;;;;;;;;;;23.10;44.20;;;;;;4892450;28;45240;-58
2022/09/22 16:16:50;;;;;;;;;;;23.10;44.20;;;;;;4894860;28;45502;-58
2022/09/22 16:19:16;;;;;;;;;;;23.10;44.20;;;;;;4910793;28;45338;-56
2022/09/22 16:21:48;;;;;;;;;;;23.10;44.10;;;;;;4910450;28;45353;-59
2022/09/22 16:24:13;;;;;;;;;;;23.10;44.10;;;;;;4907674;28;45773;-57
2022/09/22 16:26:39;;;;;;;;;;;23.00;44.10;;;;;;4914756;28;46402;-58
2022/09/22 16:29:05;;;;;;;;;;;23.00;44.20;;;;;;4911298;28;46161;-58
2022/09/22 16:31:31;;;;;;;;;;;23.00;44.20;;;;;;4892575;28;44900;-58
2022/09/22 16:33:57;;;;;;;;;;;23.00;44.20;;;;;;4906735;28;45731;-58
2022/09/22 16:36:24;;;;;;;;;;;23.00;44.10;;;;;;4900262;28;45501;-59
2022/09/22 16:38:50;;;;;;;;;;;23.00;44.20;;;;;;4910163;28;45595;-57
2022/09/22 16:41:26;;;;;;;;;;;22.90;44.10;;;;;;4897400;28;45150;-58
2022/09/22 16:43:52;;;;;;;;;;;22.90;44.20;;;;;;4911131;28;45257;-58
2022/09/22 16:46:27;;;;;;;;;;;22.90;44.20;;;;;;4899099;28;45389;-58
2022/09/22 16:48:59;;;;;;;;;;;22.90;44.30;;;;;;4892162;28;45402;-59
2022/09/22 16:51:25;;;;;;;;;;;22.90;44.30;;;;;;4887571;28;45537;-57
2022/09/22 16:53:51;;;;;;;;;;;22.80;44.30;;;;;;4911929;28;45492;-58
2022/09/22 16:56:23;;;;;;;;;;;22.80;44.30;;;;;;4892651;28;45349;-57
2022/09/22 16:58:49;;;;;;;;;;;22.80;44.30;;;;;;4913254;28;45682;-58
2022/09/22 17:01:15;;;;;;;;;;;22.80;44.40;;;;;;4910349;28;45495;-58
2022/09/22 17:03:43;;;;;;;;;;;22.80;44.40;;;;;;4911840;28;45515;-58
2022/09/22 17:06:09;;;;;;;;;;;22.70;44.30;;;;;;4915936;28;44977;-57
2022/09/22 17:08:39;;;;;;;;;;;22.70;44.40;;;;;;4911588;28;46332;-58
2022/09/22 17:11:05;;;;;;;;;;;22.70;44.40;;;;;;4894513;28;45107;-57
2022/09/22 17:13:32;;;;;;;;;;;22.70;44.40;;;;;;4911673;28;44747;-58
2022/09/22 17:16:17;;;;;;;;;;;22.70;44.40;;;;;;4902644;28;44794;-58
2022/09/22 17:18:42;;;;;;;;;;;22.70;44.50;;;;;;4908640;28;46702;-58
2022/09/22 17:21:08;;;;;;;;;;;22.60;44.50;;;;;;4910700;28;44734;-58
2022/09/22 17:23:35;;;;;;;;;;;22.60;44.60;;;;;;4910761;28;44851;-59
2022/09/22 17:26:00;;;;;;;;;;;22.60;44.60;;;;;;4908333;28;45203;-58
2022/09/22 17:28:27;;;;;;;;;;;22.60;44.60;;;;;;4889982;28;45579;-59
2022/09/22 17:30:59;;;;;;;;;;;22.50;44.50;;;;;;4906199;28;45228;-59
2022/09/22 17:33:27;;;;;;;;;;;22.50;44.60;;;;;;4906511;28;45266;-59
2022/09/22 17:35:57;;;;;;;;;;;22.50;44.60;;;;;;4891961;28;46764;-59
2022/09/22 17:38:23;;;;;;;;;;;22.50;44.60;;;;;;4906536;28;46589;-59
2022/09/22 17:40:50;;;;;;;;;;;22.50;44.60;;;;;;4912241;28;45002;-59